Time;durP1;ratioP1;P1;durP2;ratioP2;P2;SDS_P1;SDS_P2;PMS_P1;PMS_P2;Temp;Humidity;BMP_temperature;BMP_pressure;BME280_temperature;BME280_humidity;BME280_pressure;Samples;Min_cycle;Max_cycle;Signal;HPM_P1;HPM_P2
2022/10/25 00:01:25;;;;;;;2.70;1.60;;;;;;;13.13;99.02;98272.16;5190212;22;20637;-92
2022/10/25 00:03:29;;;;;;;4.00;1.80;;;;;;;13.07;98.98;98277.88;5140366;23;20625;-91
2022/10/25 00:05:32;;;;;;;5.80;1.90;;;;;;;13.04;98.77;98271.06;5191343;22;20587;-92
2022/10/25 00:07:35;;;;;;;3.60;1.30;;;;;;;13.02;99.08;98270.34;5191260;22;20578;-92
2022/10/25 00:09:38;;;;;;;2.50;1.40;;;;;;;13.02;100.00;98270.34;5164084;23;20685;-92
2022/10/25 00:11:42;;;;;;;2.00;1.50;;;;;;;13.02;99.28;98270.34;5163725;23;21122;-92
2022/10/25 00:13:45;;;;;;;3.80;1.50;;;;;;;13.02;100.00;98270.34;5139473;23;20712;-92
2022/10/25 00:15:48;;;;;;;2.90;1.37;;;;;;;13.03;99.77;98263.31;5163144;23;20619;-91
2022/10/25 00:17:51;;;;;;;4.50;1.80;;;;;;;13.01;98.88;98270.47;5163756;23;20631;-91
2022/10/25 00:19:56;;;;;;;3.57;1.50;;;;;;;12.99;99.08;98267.97;5163393;23;21144;-91
2022/10/25 00:21:59;;;;;;;3.87;1.50;;;;;;;13.00;100.00;98272.22;5164052;23;20588;-92
2022/10/25 00:24:03;;;;;;;2.90;1.50;;;;;;;12.98;100.00;98268.91;5190669;22;20881;-92
2022/10/25 00:26:08;;;;;;;8.50;2.70;;;;;;;12.95;100.00;98270.94;5163858;23;20581;-91
2022/10/25 00:28:11;;;;;;;18.53;3.80;;;;;;;12.88;100.00;98267.91;5164229;23;20604;-92
2022/10/25 00:30:14;;;;;;;8.03;1.53;;;;;;;12.84;99.35;98271.72;5138391;23;21104;-92
2022/10/25 00:32:17;;;;;;;26.53;3.67;;;;;;;12.77;99.95;98273.09;5138311;23;20578;-92
2022/10/25 00:34:20;;;;;;;6.03;1.67;;;;;;;12.74;99.58;98268.06;5138986;23;20589;-92
2022/10/25 00:36:26;;;;;;;14.47;1.90;;;;;;;12.70;98.70;98271.03;5164070;23;20675;-92
2022/10/25 00:38:30;;;;;;;4.20;1.17;;;;;;;12.67;98.38;98278.28;5164293;23;20580;-91
2022/10/25 00:40:34;;;;;;;6.70;2.30;;;;;;;12.64;99.07;98273.28;5162369;23;20576;-92
2022/10/25 00:42:37;;;;;;;12.20;2.10;;;;;;;12.63;99.11;98264.59;5163964;23;20565;-92
2022/10/25 00:44:52;;;;;;;5.90;2.30;;;;;;;12.61;98.18;98269.09;5138835;23;21019;-91
2022/10/25 00:46:55;;;;;;;17.40;2.80;;;;;;;12.57;99.41;98265.06;5137786;23;20942;-91
2022/10/25 00:49:02;;;;;;;7.70;2.10;;;;;;;12.52;99.82;98263.72;5138822;23;20590;-91
2022/10/25 00:51:05;;;;;;;5.43;2.10;;;;;;;12.52;100.00;98274.16;5164265;23;20862;-92
2022/10/25 00:53:14;;;;;;;5.60;2.00;;;;;;;12.47;100.00;98266.66;5138384;23;20696;-91
2022/10/25 00:55:19;;;;;;;5.27;1.73;;;;;;;12.45;100.00;98270.34;5162056;23;20772;-92
2022/10/25 00:57:26;;;;;;;3.27;1.97;;;;;;;12.44;99.49;98268.66;5191526;22;20903;-92
2022/10/25 00:59:29;;;;;;;4.60;1.40;;;;;;;12.38;99.03;98269.13;5164916;23;20647;-91
2022/10/25 01:01:32;;;;;;;2.97;1.60;;;;;;;12.37;99.07;98264.81;5139687;23;20605;-91
2022/10/25 01:03:37;;;;;;;6.60;1.47;;;;;;;12.37;99.61;98262.19;5189993;22;20554;-91
2022/10/25 01:05:40;;;;;;;4.00;1.90;;;;;;;12.35;98.98;98261.50;5191453;22;20646;-91
2022/10/25 01:07:44;;;;;;;4.17;1.90;;;;;;;12.36;98.95;98264.00;5140293;23;20633;-93
2022/10/25 01:09:50;;;;;;;4.67;1.80;;;;;;;12.37;99.27;98272.66;5164848;23;20578;-91
2022/10/25 01:11:53;;;;;;;3.23;1.53;;;;;;;12.36;100.00;98271.84;5139572;23;20604;-92
2022/10/25 01:13:56;;;;;;;3.97;2.20;;;;;;;12.37;98.89;98275.28;5139308;23;20604;-92
2022/10/25 01:16:05;;;;;;;2.83;1.80;;;;;;;12.34;99.39;98284.22;5164490;23;20611;-91
2022/10/25 01:18:14;;;;;;;5.63;2.00;;;;;;;12.32;99.80;98266.94;5140346;23;20623;-93
2022/10/25 01:20:47;;;;;;;5.67;2.10;;;;;;;12.29;99.54;98275.00;5165117;23;20585;-91
2022/10/25 01:22:54;;;;;;;2.47;1.73;;;;;;;12.25;99.27;98277.03;5160864;23;20584;-92
2022/10/25 01:25:24;;;;;;;6.17;2.40;;;;;;;12.24;100.00;98277.94;5164953;23;20591;-92
2022/10/25 01:27:45;;;;;;;2.80;2.00;;;;;;;12.23;100.00;98271.03;5139628;23;20581;-92
2022/10/25 01:30:13;;;;;;;3.83;2.20;;;;;;;12.22;99.82;98276.38;5165218;23;20556;-92
2022/10/25 01:32:21;;;;;;;3.30;2.27;;;;;;;12.22;99.89;98273.78;5165337;23;20576;-91
2022/10/25 01:34:26;;;;;;;2.97;2.30;;;;;;;12.21;100.00;98274.72;5140300;23;21186;-92
2022/10/25 01:36:36;;;;;;;3.83;2.30;;;;;;;12.20;100.00;98267.81;5165568;23;21009;-92
2022/10/25 01:38:44;;;;;;;3.33;1.83;;;;;;;12.18;100.00;98272.34;5139369;23;20676;-91
2022/10/25 01:40:53;;;;;;;3.10;1.90;;;;;;;12.17;100.00;98267.22;5165472;23;20578;-92
2022/10/25 01:43:01;;;;;;;2.90;2.10;;;;;;;12.17;100.00;98259.38;5139434;23;20573;-91
2022/10/25 01:45:08;;;;;;;3.03;2.10;;;;;;;12.13;99.46;98268.38;5139472;23;20576;-91
2022/10/25 01:47:13;;;;;;;7.97;2.23;;;;;;;12.11;98.42;98270.28;5138910;23;20623;-92
2022/10/25 01:49:23;;;;;;;8.00;2.70;;;;;;;12.04;98.50;98263.81;5140104;23;20670;-92
2022/10/25 01:51:27;;;;;;;11.97;3.00;;;;;;;12.01;98.33;98270.09;5140581;23;21186;-92
2022/10/25 01:53:30;;;;;;;12.50;3.40;;;;;;;12.00;99.02;98270.22;5140005;23;20613;-92
2022/10/25 01:55:40;;;;;;;5.87;2.60;;;;;;;11.97;99.83;98273.88;5163700;23;20564;-92
2022/10/25 01:57:58;;;;;;;4.83;2.00;;;;;;;11.97;100.00;98273.88;5139906;23;21475;-93
2022/10/25 02:00:08;;;;;;;5.60;2.10;;;;;;;11.96;100.00;98266.97;5139466;23;20584;-92
2022/10/25 02:02:22;;;;;;;4.73;2.00;;;;;;;11.93;99.64;98280.25;5164748;23;20595;-91
2022/10/25 02:04:33;;;;;;;5.97;2.30;;;;;;;11.94;99.84;98268.84;5139457;23;20616;-92
2022/10/25 02:06:42;;;;;;;4.23;2.23;;;;;;;11.91;100.00;98289.16;5164408;23;20568;-92
2022/10/25 02:08:48;;;;;;;2.23;1.60;;;;;;;11.90;100.00;98277.84;5139685;23;20639;-92
2022/10/25 02:10:55;;;;;;;4.20;2.10;;;;;;;11.93;100.00;98282.84;5139820;23;20558;-92
2022/10/25 02:13:02;;;;;;;3.83;2.80;;;;;;;11.95;100.00;98280.13;5164862;23;20640;-92
2022/10/25 02:15:10;;;;;;;2.80;2.20;;;;;;;11.95;100.00;98277.53;5139208;23;20991;-92
2022/10/25 02:17:17;;;;;;;2.60;1.90;;;;;;;11.95;100.00;98274.91;5164497;23;20573;-91
2022/10/25 02:19:24;;;;;;;8.00;2.57;;;;;;;11.91;100.00;98276.91;5164763;23;20677;-93
2022/10/25 02:21:30;;;;;;;2.60;2.30;;;;;;;11.89;100.00;98276.19;5139176;23;20576;-92
2022/10/25 02:23:34;;;;;;;6.43;2.40;;;;;;;11.92;100.00;98272.50;5163926;23;20571;-91
2022/10/25 02:25:40;;;;;;;5.43;2.10;;;;;;;11.91;100.00;98265.63;5139129;23;20623;-92
2022/10/25 02:27:44;;;;;;;4.47;2.27;;;;;;;11.91;100.00;98269.06;5164494;23;20671;-92
2022/10/25 02:29:48;;;;;;;7.10;2.23;;;;;;;11.91;100.00;98266.47;5139452;23;21136;-92
2022/10/25 02:31:51;;;;;;;8.20;2.37;;;;;;;11.87;100.00;98265.00;5139819;23;21108;-92
2022/10/25 02:33:54;;;;;;;8.87;2.60;;;;;;;11.84;100.00;98256.53;5139555;23;20605;-92
2022/10/25 02:36:08;;;;;;;2.43;2.10;;;;;;;11.84;100.00;98264.38;5139064;23;20611;-92
2022/10/25 02:38:13;;;;;;;5.27;2.60;;;;;;;11.84;100.00;98267.81;5164874;23;20592;-91
2022/10/25 02:40:16;;;;;;;4.03;1.80;;;;;;;11.84;100.00;98264.38;5139452;23;20569;-92
2022/10/25 02:46:14;;;;;;;4.10;2.60;;;;;;;11.80;99.33;98265.53;5191497;22;20617;-92
2022/10/25 02:48:17;;;;;;;5.00;2.70;;;;;;;11.77;100.00;98274.44;5191377;22;21145;-92
2022/10/25 02:50:20;;;;;;;4.30;2.23;;;;;;;11.77;99.40;98270.97;5164782;23;20565;-92
2022/10/25 02:52:23;;;;;;;6.03;2.33;;;;;;;11.75;99.97;98266.81;5165012;23;20572;-91
2022/10/25 02:54:27;;;;;;;3.20;2.23;;;;;;;11.72;99.72;98262.63;5163692;23;20611;-91
2022/10/25 02:56:30;;;;;;;2.40;1.80;;;;;;;11.72;99.66;98272.25;5139279;23;20573;-91
2022/10/25 02:58:36;;;;;;;3.07;2.10;;;;;;;11.70;100.00;98263.66;5163172;23;20602;-92
2022/10/25 03:00:40;;;;;;;4.60;2.23;;;;;;;11.69;100.00;98256.78;5164748;23;20905;-91
2022/10/25 03:02:43;;;;;;;6.17;2.63;;;;;;;11.67;98.72;98261.31;5139341;23;20581;-91
2022/10/25 03:04:46;;;;;;;5.67;2.20;;;;;;;11.66;100.00;98264.84;5138213;23;20612;-92
2022/10/25 03:06:49;;;;;;;4.43;2.10;;;;;;;11.66;99.36;98259.63;5164294;23;20630;-91
2022/10/25 03:08:52;;;;;;;3.03;2.20;;;;;;;11.65;100.00;98260.56;5139321;23;20608;-91
2022/10/25 03:10:57;;;;;;;10.00;2.60;;;;;;;11.63;100.00;98263.28;5164111;23;20617;-91
2022/10/25 03:13:00;;;;;;;3.73;2.57;;;;;;;11.60;99.24;98258.25;5139234;23;20627;-90
2022/10/25 03:15:03;;;;;;;4.40;2.13;;;;;;;11.62;99.36;98260.75;5190594;22;20619;-92
2022/10/25 03:17:07;;;;;;;5.03;2.00;;;;;;;11.65;100.00;98260.56;5163713;23;20599;-91
2022/10/25 03:19:10;;;;;;;3.30;2.40;;;;;;;11.60;100.00;98262.66;5138865;23;20644;-92
2022/10/25 03:21:13;;;;;;;4.50;2.60;;;;;;;11.60;100.00;98262.66;5138960;23;20631;-91
2022/10/25 03:23:16;;;;;;;4.90;2.40;;;;;;;11.63;99.97;98262.44;5164148;23;20573;-91
2022/10/25 03:25:19;;;;;;;2.80;2.23;;;;;;;11.63;100.00;98265.06;5137446;23;20577;-92
2022/10/25 03:27:24;;;;;;;3.17;2.07;;;;;;;11.64;100.00;98267.56;5139216;23;20993;-91
2022/10/25 03:29:27;;;;;;;3.43;2.60;;;;;;;11.66;100.00;98273.50;5138464;23;20627;-93
2022/10/25 03:31:30;;;;;;;3.57;2.00;;;;;;;11.66;100.00;98263.06;5163242;23;20580;-92
2022/10/25 03:33:33;;;;;;;3.67;2.00;;;;;;;11.65;100.00;98271.00;5164262;23;21166;-92
2022/10/25 03:35:36;;;;;;;4.50;2.77;;;;;;;11.64;100.00;98272.78;5138530;23;20605;-91
2022/10/25 03:37:39;;;;;;;3.27;2.10;;;;;;;11.63;100.00;98272.91;5191016;22;20567;-91
2022/10/25 03:39:42;;;;;;;2.80;2.23;;;;;;;11.63;100.00;98278.13;5190352;22;20598;-91
2022/10/25 03:41:45;;;;;;;7.57;2.70;;;;;;;11.62;100.00;98287.75;5138892;23;20704;-92
2022/10/25 03:43:49;;;;;;;5.40;2.87;;;;;;;11.58;100.00;98275.00;5138494;23;21212;-92
2022/10/25 03:45:52;;;;;;;14.27;3.37;;;;;;;11.60;100.00;98276.53;5138279;23;20812;-92
2022/10/25 03:47:55;;;;;;;9.60;3.33;;;;;;;11.57;100.00;98275.94;5163543;23;20600;-92
2022/10/25 03:49:58;;;;;;;10.67;3.47;;;;;;;11.54;100.00;98278.75;5139274;23;20576;-91
2022/10/25 03:52:01;;;;;;;6.30;2.77;;;;;;;11.53;100.00;98274.47;5164055;23;20568;-93
2022/10/25 03:54:07;;;;;;;7.70;2.60;;;;;;;11.51;100.00;98285.00;5163289;23;20683;-91
2022/10/25 03:56:10;;;;;;;9.43;3.40;;;;;;;11.51;100.00;98284.19;5138617;23;20609;-92
2022/10/25 03:58:13;;;;;;;14.23;3.53;;;;;;;11.48;100.00;98289.63;5139103;23;20573;-91
2022/10/25 04:00:17;;;;;;;13.77;3.17;;;;;;;11.48;100.00;98284.41;5138482;23;20632;-92
2022/10/25 04:02:20;;;;;;;13.77;2.93;;;;;;;11.48;100.00;98284.41;5139080;23;20581;-91
2022/10/25 04:04:23;;;;;;;8.87;3.03;;;;;;;11.48;100.00;98297.47;5163742;23;20583;-92
2022/10/25 04:06:26;;;;;;;8.40;2.80;;;;;;;11.46;100.00;98286.25;5163738;23;20573;-92
2022/10/25 04:08:29;;;;;;;7.53;2.33;;;;;;;11.47;100.00;98293.16;5164238;22;21167;-92
2022/10/25 04:10:32;;;;;;;7.93;2.77;;;;;;;11.44;100.00;98288.97;5164303;23;20701;-91
2022/10/25 04:12:35;;;;;;;14.97;3.20;;;;;;;11.42;100.00;98285.59;5164614;23;20568;-92
2022/10/25 04:14:38;;;;;;;13.40;3.30;;;;;;;11.41;100.00;98289.19;5190395;22;20754;-92
2022/10/25 04:16:43;;;;;;;26.27;3.40;;;;;;;11.40;99.78;98299.72;5138261;23;20581;-92
2022/10/25 04:18:46;;;;;;;12.50;3.50;;;;;;;11.36;100.00;98290.44;5164347;23;20580;-92
2022/10/25 04:20:49;;;;;;;7.37;2.50;;;;;;;11.33;100.00;98286.22;5139068;23;20573;-92
2022/10/25 04:22:56;;;;;;;5.53;2.27;;;;;;;11.34;100.00;98289.72;5138591;23;20577;-92
2022/10/25 04:24:59;;;;;;;9.93;3.17;;;;;;;11.33;100.00;98288.03;5138266;23;20573;-90
2022/10/25 04:27:02;;;;;;;5.37;2.30;;;;;;;11.29;100.00;98278.75;5139028;23;20605;-91
2022/10/25 04:29:10;;;;;;;7.70;2.73;;;;;;;11.28;99.57;98290.13;5164047;23;21193;-93
2022/10/25 04:31:15;;;;;;;5.83;2.80;;;;;;;11.25;100.00;98286.88;5138094;23;20576;-91
2022/10/25 04:33:20;;;;;;;8.43;2.80;;;;;;;11.25;99.99;98289.50;5191888;22;20589;-90
2022/10/25 04:35:26;;;;;;;11.17;2.63;;;;;;;11.25;100.00;98295.53;5139646;23;20905;-93
2022/10/25 04:37:29;;;;;;;6.03;2.43;;;;;;;11.22;100.00;98294.94;5191102;22;20681;-92
2022/10/25 04:39:32;;;;;;;6.10;2.70;;;;;;;11.19;100.00;98293.34;5164906;23;20879;-92
2022/10/25 04:41:35;;;;;;;13.90;3.33;;;;;;;11.19;99.25;98306.41;5139804;23;20919;-92
2022/10/25 04:43:38;;;;;;;19.03;5.87;;;;;;;11.18;100.00;98302.13;5165275;23;20584;-93
2022/10/25 04:45:41;;;;;;;29.37;6.97;;;;;;;11.19;100.00;98298.56;5139585;23;20584;-92
2022/10/25 04:47:44;;;;;;;27.97;6.37;;;;;;;11.17;100.00;98305.69;5164826;23;20583;-92
2022/10/25 04:49:48;;;;;;;19.47;4.97;;;;;;;11.17;100.00;98304.81;5139899;23;20573;-94
2022/10/25 04:51:51;;;;;;;10.80;3.50;;;;;;;11.15;100.00;98301.50;5191158;22;21139;-92
2022/10/25 04:53:54;;;;;;;9.47;3.87;;;;;;;11.13;100.00;98303.38;5140039;23;20683;-93
2022/10/25 04:55:58;;;;;;;13.67;5.20;;;;;;;11.10;100.00;98304.41;5140053;23;21213;-93
2022/10/25 04:58:01;;;;;;;10.60;4.10;;;;;;;11.12;99.61;98312.13;5140238;23;21136;-92
2022/10/25 05:00:05;;;;;;;13.50;4.10;;;;;;;11.11;100.00;98306.09;5139433;23;20829;-92
2022/10/25 05:02:08;;;;;;;16.03;5.23;;;;;;;11.10;99.90;98308.81;5191250;22;21124;-92
2022/10/25 05:04:11;;;;;;;32.73;5.33;;;;;;;11.08;99.46;98308.91;5140244;23;20588;-91
2022/10/25 05:06:17;;;;;;;18.33;5.77;;;;;;;11.05;100.00;98311.72;5139898;23;20581;-92
2022/10/25 05:08:20;;;;;;;26.83;6.23;;;;;;;11.05;98.69;98314.31;5165331;22;20974;-91
2022/10/25 05:10:24;;;;;;;28.20;6.30;;;;;;;11.02;100.00;98306.69;5140171;23;20577;-92
2022/10/25 05:12:27;;;;;;;26.27;7.50;;;;;;;11.00;99.22;98313.78;5139716;23;20604;-92
2022/10/25 05:14:30;;;;;;;22.00;8.00;;;;;;;11.01;100.00;98319.84;5138278;23;20620;-91
2022/10/25 05:16:34;;;;;;;10.97;5.40;;;;;;;11.00;100.00;98316.38;5165130;23;21163;-91
2022/10/25 05:18:37;;;;;;;9.07;5.20;;;;;;;10.97;100.00;98313.97;5165239;23;21150;-91
2022/10/25 05:20:40;;;;;;;11.80;4.60;;;;;;;10.95;100.00;98315.03;5164874;23;21186;-91
2022/10/25 05:22:44;;;;;;;7.00;3.90;;;;;;;10.93;99.43;98317.75;5139117;23;20665;-91
2022/10/25 05:24:48;;;;;;;10.27;4.50;;;;;;;10.92;99.54;98321.28;5190949;22;20579;-90
2022/10/25 05:26:51;;;;;;;17.50;5.27;;;;;;;10.93;99.63;98322.09;5164220;23;20614;-91
2022/10/25 05:28:55;;;;;;;15.07;4.63;;;;;;;10.90;100.00;98317.94;5139772;23;20688;-91
2022/10/25 05:31:03;;;;;;;14.13;4.97;;;;;;;10.86;99.53;98315.66;5164537;23;20583;-91
2022/10/25 05:33:06;;;;;;;11.60;4.33;;;;;;;10.84;98.71;98320.97;5165249;23;20979;-90
2022/10/25 05:35:09;;;;;;;24.93;5.50;;;;;;;10.83;99.97;98321.88;5164829;23;20581;-91
2022/10/25 05:37:12;;;;;;;13.30;4.73;;;;;;;10.84;99.49;98318.34;5191812;22;20639;-92
2022/10/25 05:39:16;;;;;;;20.33;4.90;;;;;;;10.83;99.47;98313.22;5164165;23;21250;-91
2022/10/25 05:41:19;;;;;;;9.03;3.83;;;;;;;10.83;99.77;98316.66;5163229;23;20617;-91
2022/10/25 05:43:22;;;;;;;16.77;4.13;;;;;;;10.82;100.00;98316.78;5139108;23;20660;-92
2022/10/25 05:45:25;;;;;;;9.47;3.70;;;;;;;10.79;99.84;98316.97;5165012;23;20664;-91
2022/10/25 05:47:28;;;;;;;14.80;3.93;;;;;;;10.76;99.81;98311.13;5139474;23;20627;-91
2022/10/25 05:49:33;;;;;;;10.43;3.60;;;;;;;10.76;98.66;98322.38;5140258;23;20585;-91
2022/10/25 05:51:36;;;;;;;15.80;4.03;;;;;;;10.75;100.00;98325.09;5164682;23;20919;-90
2022/10/25 05:53:43;;;;;;;9.40;4.10;;;;;;;10.76;99.96;98321.56;5164692;23;20590;-91
2022/10/25 05:55:47;;;;;;;15.43;3.50;;;;;;;10.75;98.83;98325.94;5164204;23;20658;-91
2022/10/25 05:57:51;;;;;;;12.17;4.10;;;;;;;10.76;99.04;98334.59;5139265;23;21116;-90
2022/10/25 05:59:54;;;;;;;6.00;2.80;;;;;;;10.74;99.06;98334.69;5191962;22;20551;-92
2022/10/25 06:01:57;;;;;;;11.00;3.70;;;;;;;10.73;98.73;98340.84;5139311;23;20577;-92
2022/10/25 06:04:00;;;;;;;6.13;3.20;;;;;;;10.72;98.50;98333.13;5139237;23;20635;-91
2022/10/25 06:06:05;;;;;;;7.17;3.77;;;;;;;10.71;99.25;98331.47;5164597;23;20573;-91
2022/10/25 06:08:08;;;;;;;11.33;3.67;;;;;;;10.72;99.80;98333.97;5139274;23;20688;-91
2022/10/25 06:10:11;;;;;;;6.20;3.42;;;;;;;10.75;99.42;98343.34;5139676;23;20609;-91
2022/10/25 06:12:16;;;;;;;6.50;3.10;;;;;;;10.75;99.43;98354.66;5139380;23;20181;-90
2022/10/25 06:14:19;;;;;;;5.73;3.13;;;;;;;10.78;100.00;98348.38;5164404;23;20626;-90
2022/10/25 06:16:22;;;;;;;3.53;2.73;;;;;;;10.80;100.00;98350.78;5164341;23;20616;-91
2022/10/25 06:18:25;;;;;;;12.50;5.43;;;;;;;10.83;99.99;98355.81;5164616;23;20588;-92
2022/10/25 06:20:28;;;;;;;4.43;3.23;;;;;;;10.83;99.46;98352.38;5163829;23;21138;-91
2022/10/25 06:22:31;;;;;;;11.10;3.43;;;;;;;10.84;99.36;98364.50;5158293;23;20575;-91
2022/10/25 06:24:34;;;;;;;8.20;4.57;;;;;;;10.83;98.95;98366.25;5158999;23;20580;-91
2022/10/25 06:26:37;;;;;;;4.80;3.50;;;;;;;10.84;99.94;98370.53;5164426;23;20680;-91
2022/10/25 06:28:42;;;;;;;4.27;3.10;;;;;;;10.85;99.05;98369.59;5164199;23;20584;-91
2022/10/25 06:30:45;;;;;;;4.43;4.03;;;;;;;10.87;99.85;98369.50;5191549;22;20586;-90
2022/10/25 06:32:48;;;;;;;7.50;4.47;;;;;;;10.92;99.92;98377.88;5139459;23;20565;-91
2022/10/25 06:34:51;;;;;;;5.50;4.00;;;;;;;10.94;100.00;98382.03;5139049;23;20605;-91
2022/10/25 06:36:54;;;;;;;7.00;4.00;;;;;;;10.99;100.00;98389.56;5139483;23;20304;-91
2022/10/25 06:38:58;;;;;;;4.97;4.47;;;;;;;11.01;100.00;98392.94;5139352;23;20611;-91
2022/10/25 06:41:12;;;;;;;5.60;4.00;;;;;;;11.08;100.00;98395.03;5164578;23;20611;-91
2022/10/25 06:43:15;;;;;;;7.30;3.80;;;;;;;11.12;99.66;98403.50;5139574;23;20584;-91
2022/10/25 06:45:19;;;;;;;6.97;3.40;;;;;;;11.15;100.00;98396.28;5164018;23;20576;-91
2022/10/25 06:47:22;;;;;;;5.97;5.27;;;;;;;11.17;100.00;98404.88;5139675;23;20577;-91
2022/10/25 06:49:29;;;;;;;5.00;4.50;;;;;;;11.23;99.76;98403.63;5164685;23;20584;-91
2022/10/25 06:51:33;;;;;;;5.40;4.40;;;;;;;11.26;100.00;98399.06;5139418;23;20581;-91
2022/10/25 06:53:36;;;;;;;7.37;4.80;;;;;;;11.30;100.00;98392.66;5164632;23;20584;-90
2022/10/25 06:55:41;;;;;;;6.30;3.97;;;;;;;11.35;100.00;98407.09;5164288;23;20576;-91
2022/10/25 06:57:44;;;;;;;4.90;3.67;;;;;;;11.37;100.00;98400.00;5139324;23;20644;-91
2022/10/25 06:59:47;;;;;;;4.77;3.40;;;;;;;11.41;99.73;98406.69;5162765;23;20671;-92
2022/10/25 07:01:52;;;;;;;4.70;3.73;;;;;;;11.53;100.00;98418.13;5164573;23;20579;-91
2022/10/25 07:03:55;;;;;;;4.37;3.10;;;;;;;11.74;100.00;98427.13;5189917;22;20580;-92
2022/10/25 07:05:59;;;;;;;8.00;5.80;;;;;;;11.95;99.65;98426.50;5137810;23;21173;-91
2022/10/25 07:08:02;;;;;;;8.90;4.00;;;;;;;11.99;99.39;98427.97;5189179;22;21139;-91
2022/10/25 07:10:06;;;;;;;8.20;4.20;;;;;;;11.95;98.87;98419.53;5162736;23;21048;-91
2022/10/25 07:12:09;;;;;;;7.40;4.33;;;;;;;11.93;98.22;98424.00;5163667;23;20953;-89
2022/10/25 07:14:14;;;;;;;6.50;4.23;;;;;;;11.95;97.90;98422.13;5162342;23;20575;-91
2022/10/25 07:16:19;;;;;;;7.63;4.13;;;;;;;12.01;99.04;98432.16;5191089;22;20579;-90
2022/10/25 07:18:24;;;;;;;6.10;3.60;;;;;;;12.20;99.49;98436.97;5164190;23;20647;-90
2022/10/25 07:20:29;;;;;;;5.10;3.80;;;;;;;12.29;99.94;98432.75;5164384;23;20627;-91
2022/10/25 07:22:33;;;;;;;4.87;3.37;;;;;;;12.57;100.00;98435.13;5163723;23;20587;-90
2022/10/25 07:24:35;;;;;;;5.80;3.87;;;;;;;12.70;99.62;98439.38;5136873;23;20616;-90
2022/10/25 07:26:40;;;;;;;4.63;3.83;;;;;;;12.91;100.00;98443.09;5163809;23;20630;-90
2022/10/25 07:28:45;;;;;;;6.17;4.37;;;;;;;13.14;99.10;98442.28;5139042;23;20631;-92
2022/10/25 07:30:48;;;;;;;5.07;4.00;;;;;;;13.30;98.32;98448.06;5163854;23;20583;-92
2022/10/25 07:32:51;;;;;;;5.13;3.73;;;;;;;13.53;98.95;98447.19;5138842;23;20581;-92
2022/10/25 07:34:55;;;;;;;6.30;4.53;;;;;;;13.69;96.97;98452.00;5163463;23;20575;-94
2022/10/25 07:36:59;;;;;;;6.40;3.90;;;;;;;13.86;97.32;98467.31;5163403;23;20579;-93
2022/10/25 07:39:03;;;;;;;6.00;3.97;;;;;;;14.03;97.89;98463.44;5138523;23;20573;-91
2022/10/25 07:41:06;;;;;;;7.70;4.50;;;;;;;14.15;97.47;98469.41;5164299;23;20627;-93
2022/10/25 07:43:10;;;;;;;5.80;4.30;;;;;;;14.21;97.09;98470.75;5138603;23;21126;-91
2022/10/25 07:45:13;;;;;;;10.67;4.63;;;;;;;14.34;96.57;98471.47;5137638;23;20636;-91
2022/10/25 07:47:20;;;;;;;7.10;3.90;;;;;;;14.25;95.89;98480.03;5138955;23;21011;-91
2022/10/25 07:49:23;;;;;;;7.20;4.20;;;;;;;14.08;96.35;98466.56;5190085;22;20587;-90
2022/10/25 07:51:28;;;;;;;6.20;4.30;;;;;;;14.15;97.40;98468.59;5139141;23;20585;-90
2022/10/25 07:53:31;;;;;;;5.67;4.20;;;;;;;14.21;96.74;98476.81;5139269;23;20624;-91
2022/10/25 07:55:34;;;;;;;5.20;4.03;;;;;;;14.49;97.76;98483.41;5138145;23;20579;-90
2022/10/25 07:57:37;;;;;;;7.23;4.00;;;;;;;14.68;97.73;98489.72;5191430;22;20592;-91
2022/10/25 07:59:40;;;;;;;4.93;3.60;;;;;;;14.61;96.75;98484.13;5190839;22;20583;-91
2022/10/25 08:01:43;;;;;;;6.43;4.10;;;;;;;14.73;99.06;98487.56;5139107;23;20579;-91
2022/10/25 08:03:46;;;;;;;5.73;4.60;;;;;;;15.00;98.18;98493.28;5164665;23;20566;-90
2022/10/25 08:05:49;;;;;;;5.83;3.90;;;;;;;15.08;96.39;98487.28;5139047;23;20570;-91
2022/10/25 08:07:54;;;;;;;5.97;4.40;;;;;;;14.98;96.66;98489.94;5193230;22;20629;-90
2022/10/25 08:09:57;;;;;;;5.53;4.27;;;;;;;15.16;98.68;98494.56;5166351;23;20945;-91
2022/10/25 08:12:00;;;;;;;5.93;4.10;;;;;;;15.38;98.76;98487.50;5140093;23;20621;-91
2022/10/25 08:14:03;;;;;;;5.90;4.27;;;;;;;15.53;96.34;98488.03;5165623;23;20987;-89
2022/10/25 08:16:10;;;;;;;6.23;4.60;;;;;;;15.75;98.35;98483.50;5192480;22;21050;-90
2022/10/25 08:18:13;;;;;;;8.37;5.23;;;;;;;16.00;97.61;98499.75;5165464;23;20640;-90
2022/10/25 08:20:16;;;;;;;7.67;5.03;;;;;;;16.16;97.28;98492.25;5165799;23;20595;-90
2022/10/25 08:22:19;;;;;;;9.73;4.80;;;;;;;16.22;96.04;98494.38;5165456;23;20947;-90
2022/10/25 08:24:23;;;;;;;6.23;4.50;;;;;;;16.27;96.28;98486.97;5140894;23;20602;-90
2022/10/25 08:26:27;;;;;;;10.80;4.30;;;;;;;16.32;94.82;98475.06;5165769;23;20570;-90
2022/10/25 08:28:34;;;;;;;6.40;4.37;;;;;;;16.38;96.52;98481.59;5166138;23;20589;-90
2022/10/25 08:30:37;;;;;;;7.23;4.27;;;;;;;16.43;95.00;98477.59;5140347;23;20571;-90
2022/10/25 08:32:40;;;;;;;6.73;4.00;;;;;;;16.53;94.17;98487.22;5192746;22;20575;-90
2022/10/25 08:34:43;;;;;;;8.47;3.60;;;;;;;16.60;94.76;98477.00;5192386;22;20552;-90
2022/10/25 08:36:48;;;;;;;4.93;3.30;;;;;;;16.70;95.30;98477.88;5165791;23;20637;-90
2022/10/25 08:38:51;;;;;;;5.90;4.10;;;;;;;16.77;95.58;98479.00;5165318;23;20596;-90
2022/10/25 08:41:02;;;;;;;7.47;4.00;;;;;;;16.84;95.42;98480.13;5165007;23;20552;-90
2022/10/25 08:43:10;;;;;;;5.83;3.90;;;;;;;16.92;96.17;98480.31;5139477;23;20585;-89
2022/10/25 08:45:18;;;;;;;7.83;4.10;;;;;;;17.00;94.72;98481.28;5191678;22;20573;-90
2022/10/25 08:47:26;;;;;;;7.53;3.83;;;;;;;17.06;93.96;98492.16;5140592;23;20633;-90
2022/10/25 08:49:33;;;;;;;5.80;3.73;;;;;;;17.12;94.48;98494.25;5140526;23;20598;-89
2022/10/25 08:51:38;;;;;;;6.83;3.30;;;;;;;17.15;93.66;98485.22;5139808;23;20588;-89
2022/10/25 08:53:46;;;;;;;7.20;3.50;;;;;;;17.21;92.66;98496.09;5165435;23;20583;-89
2022/10/25 08:55:50;;;;;;;4.50;3.00;;;;;;;17.30;93.49;98491.81;5140039;23;20592;-90
2022/10/25 08:58:17;;;;;;;5.67;3.00;;;;;;;17.43;92.35;98495.03;5139529;23;20608;-89
2022/10/25 09:00:23;;;;;;;5.87;3.37;;;;;;;17.49;92.17;98488.22;5191784;22;20651;-90
2022/10/25 09:02:33;;;;;;;4.07;3.07;;;;;;;17.58;92.68;98494.50;5191862;22;20582;-90
2022/10/25 09:04:36;;;;;;;8.00;3.13;;;;;;;17.66;92.43;98492.81;5140291;23;20582;-90
2022/10/25 09:06:42;;;;;;;6.53;2.80;;;;;;;17.77;92.52;98483.94;5165611;23;20587;-89
2022/10/25 09:08:58;;;;;;;7.13;2.80;;;;;;;17.88;93.10;98492.53;5192242;22;20693;-89
2022/10/25 09:11:06;;;;;;;4.33;2.87;;;;;;;17.95;93.58;98496.28;5164585;23;20580;-90
2022/10/25 09:13:18;;;;;;;3.90;2.40;;;;;;;18.04;91.38;98501.56;5192303;22;20602;-89
2022/10/25 09:15:32;;;;;;;6.80;3.10;;;;;;;18.06;91.67;98494.34;5139228;23;20687;-90
2022/10/25 09:17:41;;;;;;;5.80;2.70;;;;;;;18.08;90.73;98499.47;5165130;23;20913;-90
2022/10/25 09:19:56;;;;;;;6.13;2.67;;;;;;;18.06;90.83;98501.44;5165140;23;21155;-89
2022/10/25 09:22:01;;;;;;;4.40;2.40;;;;;;;18.14;89.58;98501.59;5139776;23;20585;-89
2022/10/25 09:24:10;;;;;;;6.10;2.30;;;;;;;18.19;90.43;98501.97;5140069;23;20578;-89
2022/10/25 09:26:18;;;;;;;3.93;2.27;;;;;;;18.23;90.68;98498.09;5139969;23;20582;-89
2022/10/25 09:28:25;;;;;;;5.80;2.60;;;;;;;18.32;90.90;98495.44;5140591;23;20613;-89
2022/10/25 09:30:30;;;;;;;3.90;2.20;;;;;;;18.39;91.58;98503.59;5191803;22;20639;-89
2022/10/25 09:32:37;;;;;;;4.10;2.73;;;;;;;18.42;91.10;98499.72;5165366;23;20639;-89
2022/10/25 09:34:40;;;;;;;6.00;2.87;;;;;;;18.51;91.56;98501.50;5165317;23;20696;-89
2022/10/25 09:36:45;;;;;;;4.73;2.60;;;;;;;18.51;90.89;98503.31;5163980;23;20566;-89
2022/10/25 09:38:52;;;;;;;5.07;3.50;;;;;;;18.53;91.97;98502.19;5165021;23;20947;-89
2022/10/25 09:40:57;;;;;;;5.30;2.10;;;;;;;18.49;89.81;98492.91;5191511;22;21131;-89
2022/10/25 09:43:04;;;;;;;3.03;1.83;;;;;;;18.48;90.24;98493.88;5165317;23;20596;-89
2022/10/25 09:45:23;;;;;;;7.20;1.97;;;;;;;18.43;88.09;98493.47;5139772;23;21093;-89
2022/10/25 09:47:40;;;;;;;5.57;2.67;;;;;;;18.50;89.05;98491.06;5165532;23;20638;-89
2022/10/25 09:49:50;;;;;;;5.37;2.40;;;;;;;18.51;88.96;98493.56;5192256;22;20559;-90